Terminal Aerodrome Forecast
Issued by NWS Wilmington, OH

Current Version | Previous Version | Text Only | Print | Product List | Glossary Off
Versions: 1 2 3 4 5 6 7 8 9 10 11 12 13 14 15 16 17 18

000
FTUS41 KILN 260933 AAB
TAFILN
TAF AMD
KILN 260933Z 2610/2706 36003KT P6SM OVC045
     FM261600 33006KT P6SM BKN045
     FM270000 02003KT P6SM BKN045=

USA.gov is the U.S. government's official web portal to all federal, state and local government web resources and services.